Springlake, TX (79082)

05:31 PM CDT am 26. April 2015 (GMT -0500)
West Bedford SMB | | Change Station
CLOSE
Current Station
Persönliche Wetterstationen
Location: Dimmitt, TX
Höhe: 3904 ft
Wetterstationen in der Umgebung

Höhe 3904 ft 34.54 °N, 102.34 °W | Updated 8 seconds ago

Wolkig
Wolkig
66.6 °F
gefühlte 66.6 °F
N
20.6
Wind Wechselnd Wind aus West-Südwest
Gusts 24.8 mph

Heute
Max. -- | schwach -- °F
--% Regenrisiko
Gestern
Max. -- | schwach -- °F
Precip. -- inch
7:05 AM 8:29 PM
Erstes Viertel, 59% visible
Druck 29.66 inch
Sichtweite 10.0 Meilen
Wolken Wolkig 10000 ft
Taupunkt 35 °F
Feuchtigkeit 31%
Regen 0.00 inch
Schneehöhe Nicht verfügbar..
UV 3 von 12
Pollen 8.10 von 12
Luftqualität Nicht verfügbar..
Flu Activity Local Activity
METAR KPVW 262215Z AUTO 00000KT 10SM BKN100 22/00 A2966 RMK AO2 LTG DSNT NE T02201001

More Conditions Fewer Conditions

Druck 29.66 inch
Sichtweite 10.0 Meilen
Wolken Wolkig 10000 ft
Taupunkt 35 °F
Feuchtigkeit 31%
Regen 0.00 inch
Schneehöhe Nicht verfügbar..
UV 3 von 12
Pollen 8.10 von 12
Luftqualität Nicht verfügbar..
Flu Activity Local Activity
METAR KPVW 262215Z AUTO 00000KT 10SM BKN100 22/00 A2966 RMK AO2 LTG DSNT NE T02201001

More Conditions Fewer Conditions

The full scope of the disaster following a powerful 7.8-magnitude earthquake in Nepal may not come into view for days, but global charities are already sending emergency aid. Click to see how you can help.
Nowcast | as of 4:28 PM CDT on April 26, 2015

Through 530 PM...scattered high-based showers and isolated thunderstorms will continue to advance northeastward around 30 mph across the southwestern Texas Panhandle and western and central South Plains. This activity has very little low level moisture to work with...so any rainfall amounts will be scattered and light...but it will be capable of producing brief downburst winds in excess of 50 mph. These strong winds will also loft blowing dust which may occasional reduce visibilities below 1 mile.

×

10-Day Weather Forecast

Almanac

Astronomie

Apr. 26, 2015 Aufgang Untergang
Genaue Zeit
Bürgerliche Dämmerung
Nautische Dämmerung
Astronomische Dämmerung
Mond
Länge des sichtbaren Lichts
Tageslänge
Tomorrow will be .
, % of the Moon is Illuminated

Heutige Rekorde

State Highs State Lows

Community

WunderPhotos

Upload Photos

1,817,149 Fotos hochgeladen!

WunderBlogs® & News

Nearby

Luftqualität

  Luftqualität LQ Index Schadstoff
Not available.

Schneehöhe

Station Depth Höhe

Erdbebenaktivität

Stadt Distance Mag. Time & Date
Minimum magnitude displayed is 2.5.

küstennahe Wassertemperaturen

Ort Temperatur

Stations

Wetterstationen in der Umgebung

Stationsstandort Temp. Windchill Taupunkt Feuchtigkeit Wind Precip. Höhe Aktualisiert Art